Time;durP1;ratioP1;P1;durP2;ratioP2;P2;SDS_P1;SDS_P2;PMS_P1;PMS_P2;Temp;Humidity;BMP_temperature;BMP_pressure;BME280_temperature;BME280_humidity;BME280_pressure;Samples;Min_cycle;Max_cycle;Signal;HPM_P1;HPM_P2
2021/12/23 00:02:05;;;;;;;39.47;31.83;;;;;;;;;;5072275;28;20048;-61
2021/12/23 00:04:31;;;;;;;36.95;30.08;;;;;;;;;;5073768;28;20029;-60
2021/12/23 00:06:56;;;;;;;184.70;39.83;;;;;;;;;;5073490;28;20040;-60
2021/12/23 00:09:27;;;;;;;38.15;29.08;;;;;;;;;;5038982;28;20111;-61
2021/12/23 00:11:52;;;;;;;41.08;30.75;;;;;;;;;;5039039;28;20068;-61
2021/12/23 00:14:18;;;;;;;40.47;30.85;;;;;;;;;;5073338;28;20056;-61
2021/12/23 00:16:48;;;;;;;31.13;23.23;;;;;;;;;;5073312;28;20078;-61
2021/12/23 00:23:20;;;;;;;61.40;42.30;;;;;;;;;;5038807;28;20033;-61
2021/12/23 00:24:48;;;;;;;38.80;27.67;;;;;;;;;;5073215;28;20534;-61
2021/12/23 00:27:14;;;;;;;34.28;25.85;;;;;;;;;;5072994;28;20032;-61
2021/12/23 00:29:40;;;;;;;40.08;28.85;;;;;;;;;;5073359;28;20472;-62
2021/12/23 00:32:07;;;;;;;39.20;28.25;;;;;;;;;;5072981;28;20036;-61
2021/12/23 00:34:33;;;;;;;32.13;22.48;;;;;;;;;;5038575;28;20041;-60
2021/12/23 00:37:00;;;;;;;29.85;21.75;;;;;;;;;;5072959;28;20031;-62
2021/12/23 00:39:27;;;;;;;31.33;23.05;;;;;;;;;;5071735;28;20491;-61
2021/12/23 00:41:54;;;;;;;26.48;20.17;;;;;;;;;;5055103;28;20042;-62
2021/12/23 00:44:20;;;;;;;30.15;21.45;;;;;;;;;;5038368;28;20079;-62
2021/12/23 00:46:45;;;;;;;28.85;21.48;;;;;;;;;;5072990;28;20017;-62
2021/12/23 00:49:11;;;;;;;26.23;20.27;;;;;;;;;;5072863;28;20038;-61
2021/12/23 00:51:36;;;;;;;30.17;21.95;;;;;;;;;;5072988;28;20111;-62
2021/12/23 00:54:05;;;;;;;26.02;18.45;;;;;;;;;;5072631;28;20395;-62
2021/12/23 00:56:32;;;;;;;62.67;47.22;;;;;;;;;;5072634;28;20438;-62
2021/12/23 00:58:57;;;;;;;34.67;23.85;;;;;;;;;;5072617;28;20099;-62
2021/12/23 01:01:23;;;;;;;26.85;20.17;;;;;;;;;;5072570;28;20120;-60
2021/12/23 01:03:48;;;;;;;25.58;20.38;;;;;;;;;;5054724;28;20064;-62
2021/12/23 01:06:13;;;;;;;27.13;20.45;;;;;;;;;;5072368;28;20632;-60
2021/12/23 01:08:39;;;;;;;25.70;20.67;;;;;;;;;;5072461;28;20028;-63
2021/12/23 01:11:04;;;;;;;21.45;16.70;;;;;;;;;;5072779;28;20035;-62
2021/12/23 01:13:30;;;;;;;30.98;22.95;;;;;;;;;;5072234;28;20023;-61
2021/12/23 01:16:07;;;;;;;23.58;18.13;;;;;;;;;;5072308;28;20115;-62
2021/12/23 01:18:37;;;;;;;24.02;17.65;;;;;;;;;;5038153;28;20087;-63
2021/12/23 01:21:04;;;;;;;28.65;22.33;;;;;;;;;;5038032;28;20040;-61
2021/12/23 01:23:31;;;;;;;31.58;23.02;;;;;;;;;;5054403;28;20025;-62
2021/12/23 01:25:57;;;;;;;29.63;21.50;;;;;;;;;;5054540;28;20037;-59
2021/12/23 01:28:23;;;;;;;27.45;20.42;;;;;;;;;;5054083;28;20048;-59
2021/12/23 01:30:53;;;;;;;32.13;23.25;;;;;;;;;;5037787;28;20124;-62
2021/12/23 01:33:18;;;;;;;28.85;21.88;;;;;;;;;;5054165;28;20092;-63
2021/12/23 01:35:49;;;;;;;38.47;23.15;;;;;;;;;;5054238;28;20060;-62
2021/12/23 01:38:15;;;;;;;30.10;22.20;;;;;;;;;;5037793;28;20028;-62
2021/12/23 01:40:44;;;;;;;29.77;22.05;;;;;;;;;;5054062;28;20028;-62
2021/12/23 01:43:09;;;;;;;29.85;21.58;;;;;;;;;;5053968;28;20067;-62
2021/12/23 01:45:42;;;;;;;28.02;20.33;;;;;;;;;;5072116;28;20056;-62
2021/12/23 01:48:08;;;;;;;27.55;21.77;;;;;;;;;;5037706;28;20098;-62
2021/12/23 01:50:37;;;;;;;28.25;21.17;;;;;;;;;;5072155;28;20480;-61
2021/12/23 01:53:02;;;;;;;31.42;21.33;;;;;;;;;;5037510;28;20449;-61
2021/12/23 01:55:28;;;;;;;27.38;20.40;;;;;;;;;;5071648;28;20119;-61
2021/12/23 01:57:53;;;;;;;29.02;20.60;;;;;;;;;;5053840;28;20472;-61
2021/12/23 02:00:21;;;;;;;25.77;20.15;;;;;;;;;;5071856;28;20028;-61
2021/12/23 02:02:48;;;;;;;25.50;19.90;;;;;;;;;;5037772;28;20033;-61
2021/12/23 02:05:13;;;;;;;29.30;18.70;;;;;;;;;;5037319;28;20036;-61
2021/12/23 02:07:39;;;;;;;25.17;19.83;;;;;;;;;;5071677;28;20082;-61
2021/12/23 02:10:06;;;;;;;27.15;19.83;;;;;;;;;;5071508;28;20032;-63
2021/12/23 02:12:32;;;;;;;23.63;18.83;;;;;;;;;;5054105;28;20103;-61
2021/12/23 02:14:57;;;;;;;23.30;18.45;;;;;;;;;;5071696;28;20111;-62
2021/12/23 02:17:22;;;;;;;24.63;19.05;;;;;;;;;;5073344;28;20044;-61
2021/12/23 02:19:52;;;;;;;28.00;18.70;;;;;;;;;;5075065;28;20036;-61
2021/12/23 02:22:17;;;;;;;24.80;18.38;;;;;;;;;;5075500;28;20142;-61
2021/12/23 02:24:42;;;;;;;25.08;18.33;;;;;;;;;;5074568;28;20602;-62
2021/12/23 02:27:09;;;;;;;24.08;16.20;;;;;;;;;;5040361;28;20037;-61
2021/12/23 02:29:34;;;;;;;21.80;17.15;;;;;;;;;;5075076;28;20043;-61
2021/12/23 02:32:00;;;;;;;21.02;16.90;;;;;;;;;;5057269;28;20037;-62
2021/12/23 02:34:25;;;;;;;23.63;17.33;;;;;;;;;;5057008;28;20052;-61
2021/12/23 02:36:52;;;;;;;26.23;18.70;;;;;;;;;;5074973;28;20078;-62
2021/12/23 02:39:17;;;;;;;23.25;16.48;;;;;;;;;;5074914;28;20040;-61
2021/12/23 02:41:43;;;;;;;22.48;16.42;;;;;;;;;;5056808;28;20503;-61
2021/12/23 02:44:08;;;;;;;25.80;17.23;;;;;;;;;;5074833;28;20040;-61
2021/12/23 02:46:35;;;;;;;23.67;16.77;;;;;;;;;;5074803;28;20029;-62
2021/12/23 02:49:00;;;;;;;24.65;17.38;;;;;;;;;;5057221;28;20036;-61
2021/12/23 02:51:26;;;;;;;21.30;16.80;;;;;;;;;;5074702;28;20499;-61
2021/12/23 02:53:51;;;;;;;23.50;17.33;;;;;;;;;;5074752;28;20047;-62
2021/12/23 02:56:17;;;;;;;26.30;17.70;;;;;;;;;;5074315;28;20119;-61
2021/12/23 02:58:44;;;;;;;23.63;17.63;;;;;;;;;;5040010;28;20020;-61
2021/12/23 03:01:10;;;;;;;23.95;16.45;;;;;;;;;;5056730;28;20024;-61
2021/12/23 03:03:36;;;;;;;24.70;17.38;;;;;;;;;;5074861;28;20442;-61
2021/12/23 03:06:02;;;;;;;23.67;17.33;;;;;;;;;;5056487;28;20024;-61
2021/12/23 03:08:30;;;;;;;23.85;17.13;;;;;;;;;;5074375;28;20058;-60
2021/12/23 03:10:56;;;;;;;22.15;15.70;;;;;;;;;;5074144;28;20028;-61
2021/12/23 03:13:21;;;;;;;23.17;16.23;;;;;;;;;;5039973;28;20021;-60
2021/12/23 03:15:47;;;;;;;23.75;17.08;;;;;;;;;;5074911;28;20055;-61
2021/12/23 03:18:13;;;;;;;24.33;16.65;;;;;;;;;;5074353;28;20056;-61
2021/12/23 03:20:38;;;;;;;23.73;16.73;;;;;;;;;;5074262;28;20032;-61
2021/12/23 03:23:03;;;;;;;23.48;16.08;;;;;;;;;;5074086;28;20043;-60
2021/12/23 03:25:29;;;;;;;21.45;16.08;;;;;;;;;;5073849;28;20029;-60
2021/12/23 03:27:54;;;;;;;20.30;15.02;;;;;;;;;;5073909;28;20039;-62
2021/12/23 03:30:20;;;;;;;21.98;15.25;;;;;;;;;;5074032;28;20097;-61
2021/12/23 03:32:45;;;;;;;21.42;15.32;;;;;;;;;;5074186;28;20036;-61
2021/12/23 03:35:11;;;;;;;20.75;15.40;;;;;;;;;;5073988;28;20033;-60
2021/12/23 03:37:36;;;;;;;22.77;15.52;;;;;;;;;;5074113;28;20037;-61
2021/12/23 03:40:02;;;;;;;21.67;14.63;;;;;;;;;;5073729;28;20044;-62
2021/12/23 03:42:28;;;;;;;19.45;14.60;;;;;;;;;;5039419;28;20043;-60
2021/12/23 03:44:53;;;;;;;26.42;16.55;;;;;;;;;;5073938;28;20024;-61
2021/12/23 03:47:18;;;;;;;21.67;15.95;;;;;;;;;;5073967;28;20036;-60
2021/12/23 03:49:44;;;;;;;23.25;16.05;;;;;;;;;;5073767;28;20033;-60
2021/12/23 03:52:09;;;;;;;21.13;15.65;;;;;;;;;;5073699;28;20043;-61
2021/12/23 03:54:35;;;;;;;22.25;15.52;;;;;;;;;;5073702;28;20059;-61
2021/12/23 03:57:00;;;;;;;24.35;16.65;;;;;;;;;;5073591;28;20099;-61
2021/12/23 03:59:26;;;;;;;22.17;15.43;;;;;;;;;;5073669;28;20025;-61
2021/12/23 04:01:51;;;;;;;19.95;15.07;;;;;;;;;;5072622;28;20036;-61
2021/12/23 04:04:16;;;;;;;21.63;15.25;;;;;;;;;;5068586;28;20099;-61
2021/12/23 04:06:42;;;;;;;25.05;16.95;;;;;;;;;;5051956;28;20091;-64
2021/12/23 04:09:07;;;;;;;23.45;15.63;;;;;;;;;;5069903;28;20504;-62
2021/12/23 04:11:33;;;;;;;21.70;15.55;;;;;;;;;;5069399;28;20028;-62
2021/12/23 04:13:58;;;;;;;18.80;14.40;;;;;;;;;;5051545;28;20093;-61
2021/12/23 04:16:24;;;;;;;21.15;14.35;;;;;;;;;;5069737;28;20092;-61
2021/12/23 04:18:51;;;;;;;19.35;14.63;;;;;;;;;;5069145;28;20029;-63
2021/12/23 04:21:16;;;;;;;18.90;13.98;;;;;;;;;;5051865;28;20040;-61
2021/12/23 04:23:42;;;;;;;19.23;14.10;;;;;;;;;;5069150;28;20029;-63
2021/12/23 04:26:09;;;;;;;21.33;15.10;;;;;;;;;;5069292;28;20472;-62
2021/12/23 04:28:44;;;;;;;19.08;14.23;;;;;;;;;;5050989;28;20090;-65
2021/12/23 04:31:10;;;;;;;20.55;14.60;;;;;;;;;;5034784;28;20085;-62
2021/12/23 04:33:35;;;;;;;20.00;13.70;;;;;;;;;;5069285;28;20032;-61
2021/12/23 04:36:01;;;;;;;22.17;15.25;;;;;;;;;;5069135;28;20499;-61
2021/12/23 04:38:26;;;;;;;20.75;14.70;;;;;;;;;;5068843;28;20488;-62
2021/12/23 04:40:51;;;;;;;20.80;14.35;;;;;;;;;;5068132;28;20127;-61
2021/12/23 04:43:17;;;;;;;19.52;13.77;;;;;;;;;;5051742;28;20032;-63
2021/12/23 04:45:42;;;;;;;19.23;13.95;;;;;;;;;;5069127;28;20115;-63
2021/12/23 04:48:08;;;;;;;19.73;14.50;;;;;;;;;;5069374;28;20488;-61
2021/12/23 04:50:33;;;;;;;19.10;13.82;;;;;;;;;;5068822;28;20124;-60
2021/12/23 04:52:59;;;;;;;19.70;14.57;;;;;;;;;;5068503;28;20032;-61
2021/12/23 04:55:24;;;;;;;20.38;14.20;;;;;;;;;;5068759;28;20127;-62
2021/12/23 04:57:50;;;;;;;18.60;14.10;;;;;;;;;;5034543;28;20037;-61
2021/12/23 05:00:16;;;;;;;20.23;14.35;;;;;;;;;;5068897;28;20052;-62
2021/12/23 05:02:42;;;;;;;19.52;13.98;;;;;;;;;;5068391;28;20090;-61
2021/12/23 05:05:07;;;;;;;22.83;14.30;;;;;;;;;;5069099;28;20120;-65
2021/12/23 05:07:33;;;;;;;19.10;14.48;;;;;;;;;;5068795;28;20041;-60
2021/12/23 05:09:58;;;;;;;20.63;14.02;;;;;;;;;;5068594;28;20024;-63
2021/12/23 05:12:24;;;;;;;21.17;14.68;;;;;;;;;;5050618;28;20036;-60
2021/12/23 05:14:49;;;;;;;20.10;13.07;;;;;;;;;;5068358;28;20547;-62
2021/12/23 05:17:15;;;;;;;16.58;12.18;;;;;;;;;;5068514;28;20055;-60
2021/12/23 05:19:40;;;;;;;17.98;12.95;;;;;;;;;;5068260;28;20150;-60
2021/12/23 05:22:06;;;;;;;19.25;12.90;;;;;;;;;;5068569;28;20037;-62
2021/12/23 05:24:32;;;;;;;20.77;13.05;;;;;;;;;;5050524;28;20456;-62
2021/12/23 05:26:57;;;;;;;19.63;12.75;;;;;;;;;;5050081;28;20047;-60
2021/12/23 05:29:23;;;;;;;17.35;12.82;;;;;;;;;;5068453;28;20025;-60
2021/12/23 05:31:48;;;;;;;16.38;11.32;;;;;;;;;;5068250;28;20032;-64
2021/12/23 05:34:14;;;;;;;14.98;11.95;;;;;;;;;;5050421;28;20060;-62
2021/12/23 05:36:41;;;;;;;18.77;12.75;;;;;;;;;;5067943;28;20510;-61
2021/12/23 05:39:07;;;;;;;19.88;12.77;;;;;;;;;;5068751;28;20064;-61
2021/12/23 05:41:32;;;;;;;20.92;13.02;;;;;;;;;;5050076;28;20072;-61
2021/12/23 05:43:58;;;;;;;15.43;12.30;;;;;;;;;;5067935;28;20094;-62
2021/12/23 05:46:24;;;;;;;20.65;12.88;;;;;;;;;;5065749;28;20040;-61
2021/12/23 05:48:49;;;;;;;19.80;13.95;;;;;;;;;;5062984;28;20798;-62
2021/12/23 05:51:15;;;;;;;17.70;12.57;;;;;;;;;;5057614;28;20120;-63
2021/12/23 05:53:40;;;;;;;17.95;13.07;;;;;;;;;;5069996;28;20384;-63
2021/12/23 05:56:05;;;;;;;15.65;12.75;;;;;;;;;;5069875;28;20070;-61
2021/12/23 05:58:31;;;;;;;19.05;13.20;;;;;;;;;;5069623;28;20116;-63
2021/12/23 06:00:57;;;;;;;20.75;14.90;;;;;;;;;;5070448;28;20127;-65
2021/12/23 06:03:22;;;;;;;19.20;14.02;;;;;;;;;;5071775;28;20108;-60
2021/12/23 06:05:48;;;;;;;19.85;14.30;;;;;;;;;;5071943;28;20035;-61
2021/12/23 06:08:13;;;;;;;19.13;13.65;;;;;;;;;;5071404;28;20024;-62
2021/12/23 06:10:38;;;;;;;19.35;13.32;;;;;;;;;;5071014;28;20040;-62
2021/12/23 06:13:04;;;;;;;19.23;13.70;;;;;;;;;;5071968;28;20022;-65
2021/12/23 06:15:29;;;;;;;21.10;14.43;;;;;;;;;;5071547;28;20471;-61
2021/12/23 06:17:55;;;;;;;21.17;15.05;;;;;;;;;;5072047;28;20032;-61
2021/12/23 06:20:20;;;;;;;19.40;14.30;;;;;;;;;;5071385;28;20490;-61
2021/12/23 06:22:46;;;;;;;18.45;13.65;;;;;;;;;;5086806;28;20069;-61
2021/12/23 06:25:12;;;;;;;21.98;15.02;;;;;;;;;;5071075;28;20024;-62
2021/12/23 06:27:38;;;;;;;21.23;13.75;;;;;;;;;;5087250;28;20028;-61
2021/12/23 06:30:12;;;;;;;21.60;15.07;;;;;;;;;;5071063;28;20177;-61
2021/12/23 06:32:38;;;;;;;21.52;14.00;;;;;;;;;;5051318;28;20041;-62
2021/12/23 06:35:03;;;;;;;21.38;13.63;;;;;;;;;;5050942;28;20029;-62
2021/12/23 06:37:28;;;;;;;19.13;13.07;;;;;;;;;;5051054;28;20036;-61
2021/12/23 06:39:54;;;;;;;16.48;12.77;;;;;;;;;;5051226;28;20357;-62
2021/12/23 06:42:23;;;;;;;18.67;13.88;;;;;;;;;;5051577;28;20495;-65
2021/12/23 06:44:48;;;;;;;21.40;13.25;;;;;;;;;;5033113;28;20029;-61
2021/12/23 06:47:14;;;;;;;17.75;12.55;;;;;;;;;;5050781;28;20391;-61
2021/12/23 06:49:41;;;;;;;19.25;13.25;;;;;;;;;;5033383;28;20035;-61
2021/12/23 06:52:06;;;;;;;21.90;14.02;;;;;;;;;;5050920;28;20029;-62
2021/12/23 06:54:32;;;;;;;20.45;13.52;;;;;;;;;;5050779;28;20041;-66
2021/12/23 06:56:57;;;;;;;18.60;12.57;;;;;;;;;;5050690;28;20471;-62
2021/12/23 06:59:23;;;;;;;15.57;11.70;;;;;;;;;;5050688;28;20421;-61
2021/12/23 07:01:49;;;;;;;15.55;11.60;;;;;;;;;;5050601;28;20044;-61
2021/12/23 07:04:17;;;;;;;17.42;12.70;;;;;;;;;;5032523;28;20431;-62
2021/12/23 07:06:48;;;;;;;18.10;13.05;;;;;;;;;;5032423;28;20067;-60
2021/12/23 07:09:15;;;;;;;20.73;13.30;;;;;;;;;;5016390;28;20053;-60
2021/12/23 07:11:40;;;;;;;19.35;12.95;;;;;;;;;;5032752;28;20044;-62
2021/12/23 07:14:05;;;;;;;19.27;12.95;;;;;;;;;;5050449;28;20120;-65
2021/12/23 07:16:32;;;;;;;17.88;12.75;;;;;;;;;;5050440;28;20476;-61
2021/12/23 07:18:57;;;;;;;21.25;13.55;;;;;;;;;;5048640;28;20051;-60
2021/12/23 07:21:23;;;;;;;20.73;14.00;;;;;;;;;;5050592;28;20045;-61
2021/12/23 07:23:48;;;;;;;20.77;15.13;;;;;;;;;;5050260;28;20035;-61
2021/12/23 07:26:17;;;;;;;18.92;13.10;;;;;;;;;;5048499;28;20392;-63
2021/12/23 07:28:43;;;;;;;20.47;13.03;;;;;;;;;;5032122;28;20116;-62
2021/12/23 07:31:14;;;;;;;21.17;14.30;;;;;;;;;;5063862;28;20111;-69
2021/12/23 07:33:39;;;;;;;27.45;14.95;;;;;;;;;;5070450;28;20044;-66
2021/12/23 07:36:05;;;;;;;24.08;14.88;;;;;;;;;;5070282;28;20024;-63
2021/12/23 07:38:32;;;;;;;19.40;13.48;;;;;;;;;;5068272;28;20044;-61
2021/12/23 07:40:57;;;;;;;21.67;13.27;;;;;;;;;;5068519;28;20028;-61
2021/12/23 07:46:01;;;;;;;22.75;14.07;;;;;;;;;;5070439;28;20047;-61
2021/12/23 07:48:26;;;;;;;21.45;14.15;;;;;;;;;;5068472;28;20032;-61
2021/12/23 07:50:53;;;;;;;20.75;15.27;;;;;;;;;;5068526;28;20441;-66
2021/12/23 07:53:18;;;;;;;24.33;15.70;;;;;;;;;;5068725;28;20406;-66
2021/12/23 07:55:44;;;;;;;25.30;17.38;;;;;;;;;;5070030;28;20495;-62
2021/12/23 07:58:10;;;;;;;21.02;15.10;;;;;;;;;;5069765;28;20162;-61
2021/12/23 08:00:35;;;;;;;20.75;14.40;;;;;;;;;;5068333;28;20039;-62
2021/12/23 08:03:01;;;;;;;27.95;14.75;;;;;;;;;;5069833;28;20055;-61
2021/12/23 08:05:27;;;;;;;20.73;14.98;;;;;;;;;;5069704;28;20029;-62
2021/12/23 08:07:54;;;;;;;23.92;16.23;;;;;;;;;;5085142;28;20043;-62
2021/12/23 08:10:20;;;;;;;101.72;54.10;;;;;;;;;;5069832;28;20032;-62
2021/12/23 08:12:45;;;;;;;95.30;47.22;;;;;;;;;;5084917;28;20035;-61
2021/12/23 08:15:11;;;;;;;58.90;35.75;;;;;;;;;;5068462;28;20048;-62
2021/12/23 08:17:37;;;;;;;45.00;28.38;;;;;;;;;;5069410;28;20044;-61
2021/12/23 08:20:03;;;;;;;42.92;25.35;;;;;;;;;;5077722;28;20036;-62
2021/12/23 08:22:28;;;;;;;36.65;23.65;;;;;;;;;;5033003;28;20472;-62
2021/12/23 08:24:53;;;;;;;34.20;22.52;;;;;;;;;;5067330;28;20033;-62
2021/12/23 08:27:21;;;;;;;29.33;20.38;;;;;;;;;;5068950;28;20033;-62
2021/12/23 08:29:46;;;;;;;27.25;17.25;;;;;;;;;;5067463;28;20036;-62
2021/12/23 08:32:12;;;;;;;25.70;14.07;;;;;;;;;;5066538;28;20028;-64
2021/12/23 08:34:38;;;;;;;18.27;11.77;;;;;;;;;;5064919;28;20094;-62
2021/12/23 08:37:06;;;;;;;19.85;12.57;;;;;;;;;;5065045;28;20075;-64
2021/12/23 08:39:32;;;;;;;21.42;13.35;;;;;;;;;;5047306;28;20024;-61
2021/12/23 08:41:57;;;;;;;20.77;12.73;;;;;;;;;;5064366;28;20546;-62
2021/12/23 08:44:23;;;;;;;19.23;12.75;;;;;;;;;;5067030;28;20048;-65
2021/12/23 08:46:48;;;;;;;17.92;11.20;;;;;;;;;;5066921;28;20032;-62
2021/12/23 08:49:14;;;;;;;16.60;10.90;;;;;;;;;;5048739;28;20055;-62
2021/12/23 08:51:41;;;;;;;19.58;10.93;;;;;;;;;;5066593;28;20123;-63
2021/12/23 08:54:06;;;;;;;15.52;9.68;;;;;;;;;;5048764;28;20041;-62
2021/12/23 08:56:32;;;;;;;14.52;9.13;;;;;;;;;;5067918;28;20237;-62
2021/12/23 08:58:57;;;;;;;14.07;9.05;;;;;;;;;;5068771;28;20108;-61
2021/12/23 09:01:23;;;;;;;13.77;8.65;;;;;;;;;;5069109;28;20380;-64
2021/12/23 09:03:48;;;;;;;15.68;9.27;;;;;;;;;;5066816;28;20066;-64
2021/12/23 09:06:14;;;;;;;13.20;8.95;;;;;;;;;;5066723;28;20028;-67
2021/12/23 09:08:39;;;;;;;13.20;8.93;;;;;;;;;;5066624;28;20105;-62
2021/12/23 09:11:04;;;;;;;15.00;9.38;;;;;;;;;;5066599;28;20531;-62
2021/12/23 09:13:30;;;;;;;17.27;9.60;;;;;;;;;;5066437;28;20048;-61
2021/12/23 09:15:56;;;;;;;14.02;9.95;;;;;;;;;;5066762;28;20036;-61
2021/12/23 09:18:21;;;;;;;12.88;9.10;;;;;;;;;;5049174;28;20036;-62
2021/12/23 09:20:48;;;;;;;16.83;8.80;;;;;;;;;;5050008;28;20068;-64
2021/12/23 09:23:13;;;;;;;13.95;8.63;;;;;;;;;;5068201;28;20045;-63
2021/12/23 09:25:39;;;;;;;12.95;8.80;;;;;;;;;;5068280;28;20031;-62
2021/12/23 09:33:36;;;;;;;12.05;8.13;;;;;;;;;;5068425;28;20071;-59
2021/12/23 09:36:02;;;;;;;11.50;7.97;;;;;;;;;;5068345;28;20060;-62
2021/12/23 09:38:27;;;;;;;11.63;7.43;;;;;;;;;;5033882;28;20532;-61
2021/12/23 09:40:56;;;;;;;13.57;7.95;;;;;;;;;;5068194;28;20037;-66
2021/12/23 09:43:25;;;;;;;9.98;7.03;;;;;;;;;;5068383;28;20044;-63
2021/12/23 09:45:51;;;;;;;8.85;6.78;;;;;;;;;;5033738;28;20400;-64
2021/12/23 09:48:19;;;;;;;12.30;6.53;;;;;;;;;;5050137;28;20040;-62
2021/12/23 09:50:45;;;;;;;12.80;7.22;;;;;;;;;;5066486;28;20071;-60
2021/12/23 09:53:15;;;;;;;10.32;6.85;;;;;;;;;;5049816;28;20037;-65
2021/12/23 09:55:42;;;;;;;11.48;7.40;;;;;;;;;;5052727;28;20040;-61
2021/12/23 09:58:08;;;;;;;15.07;8.38;;;;;;;;;;5070581;28;20036;-62
2021/12/23 10:00:36;;;;;;;9.93;7.72;;;;;;;;;;5089345;28;20032;-63
2021/12/23 10:03:03;;;;;;;11.93;7.63;;;;;;;;;;5088523;28;20036;-65
2021/12/23 10:05:32;;;;;;;12.07;6.95;;;;;;;;;;5070519;28;20043;-61
2021/12/23 10:07:57;;;;;;;12.45;6.63;;;;;;;;;;5070739;28;20032;-60
2021/12/23 10:10:29;;;;;;;11.90;6.72;;;;;;;;;;5086902;28;20039;-62
2021/12/23 10:38:12;;;;;;;11.30;7.90;;;;;;;;;;5068539;28;20047;-61
2021/12/23 10:40:39;;;;;;;14.65;8.65;;;;;;;;;;5071267;28;20380;-63
2021/12/23 10:43:08;;;;;;;14.57;8.82;;;;;;;;;;5067521;28;20112;-63
2021/12/23 10:45:48;;;;;;;14.05;9.57;;;;;;;;;;5066254;28;20086;-61
2021/12/23 10:48:16;;;;;;;18.90;9.48;;;;;;;;;;5059426;28;20256;-61
2021/12/23 10:50:46;;;;;;;15.38;8.93;;;;;;;;;;5055105;28;20567;-61
2021/12/23 10:53:12;;;;;;;14.07;9.32;;;;;;;;;;5053219;28;20479;-62
2021/12/23 10:58:23;;;;;;;17.27;9.63;;;;;;;;;;5065114;28;20036;-60
2021/12/23 11:00:52;;;;;;;17.60;9.13;;;;;;;;;;5062087;28;20055;-60
2021/12/23 11:03:29;;;;;;;15.00;10.15;;;;;;;;;;5056812;28;20074;-60
2021/12/23 11:06:09;;;;;;;17.15;9.18;;;;;;;;;;5053114;28;20536;-60
2021/12/23 11:38:32;;;;;;;14.38;10.00;;;;;;;;;;5067457;28;20087;-61
2021/12/23 11:41:03;;;;;;;14.10;10.85;;;;;;;;;;5066233;28;20116;-60
2021/12/23 11:43:47;;;;;;;17.23;11.05;;;;;;;;;;5065500;28;20036;-61
2021/12/23 11:46:15;;;;;;;15.38;10.30;;;;;;;;;;5065476;28;20089;-60
2021/12/23 11:48:44;;;;;;;15.85;10.90;;;;;;;;;;5066509;28;20534;-60
2021/12/23 11:51:21;;;;;;;14.45;11.10;;;;;;;;;;5064872;28;20032;-60
2021/12/23 11:53:48;;;;;;;19.30;12.30;;;;;;;;;;5066945;28;20036;-61
2021/12/23 11:56:14;;;;;;;15.73;11.45;;;;;;;;;;5067858;28;20030;-60
2021/12/23 11:58:43;;;;;;;14.10;11.85;;;;;;;;;;5068720;28;20521;-60
2021/12/23 12:01:10;;;;;;;18.13;11.52;;;;;;;;;;5068670;28;20040;-60
2021/12/23 12:03:50;;;;;;;16.48;10.95;;;;;;;;;;5068837;28;20037;-60
2021/12/23 12:06:16;;;;;;;16.30;11.68;;;;;;;;;;5068904;28;20078;-60
2021/12/23 12:08:42;;;;;;;19.42;12.50;;;;;;;;;;5068489;28;20071;-60
2021/12/23 12:11:15;;;;;;;17.48;12.85;;;;;;;;;;5069088;28;20067;-60
2021/12/23 12:13:40;;;;;;;14.35;12.05;;;;;;;;;;5068753;28;20051;-60
2021/12/23 12:16:24;;;;;;;16.80;12.50;;;;;;;;;;5068859;28;20021;-60
2021/12/23 12:18:50;;;;;;;15.63;12.75;;;;;;;;;;5050360;28;20044;-60
2021/12/23 12:21:31;;;;;;;16.83;12.15;;;;;;;;;;5050892;28;20040;-59
2021/12/23 12:24:25;;;;;;;19.92;13.25;;;;;;;;;;5069030;28;20037;-60
2021/12/23 12:26:55;;;;;;;18.27;13.98;;;;;;;;;;5055188;28;20110;-59
2021/12/23 12:29:25;;;;;;;18.55;16.42;;;;;;;;;;5068466;28;20024;-59
2021/12/23 12:31:50;;;;;;;19.45;14.10;;;;;;;;;;5068693;28;20112;-60
2021/12/23 12:34:19;;;;;;;15.52;13.50;;;;;;;;;;5068094;28;20115;-60
2021/12/23 12:36:49;;;;;;;17.10;13.00;;;;;;;;;;5068393;28;20163;-60
2021/12/23 12:39:24;;;;;;;20.00;12.55;;;;;;;;;;5068630;28;20040;-60
2021/12/23 12:41:51;;;;;;;17.30;12.48;;;;;;;;;;5068300;28;20025;-60
2021/12/23 12:47:00;;;;;;;16.55;13.45;;;;;;;;;;5068153;28;20400;-60
2021/12/23 12:49:31;;;;;;;15.95;12.35;;;;;;;;;;5068335;28;20059;-60
2021/12/23 12:52:17;;;;;;;17.42;13.68;;;;;;;;;;5068044;28;20059;-61
2021/12/23 12:54:50;;;;;;;19.40;13.70;;;;;;;;;;5067742;28;20047;-61
2021/12/23 12:57:16;;;;;;;23.63;19.02;;;;;;;;;;5068003;28;20116;-61
2021/12/23 12:59:43;;;;;;;24.02;18.50;;;;;;;;;;5067793;28;20029;-60
2021/12/23 13:02:26;;;;;;;22.48;14.10;;;;;;;;;;5067816;28;20115;-60
2021/12/23 13:04:58;;;;;;;21.33;14.88;;;;;;;;;;5068191;28;20044;-60
2021/12/23 13:07:47;;;;;;;23.80;15.80;;;;;;;;;;5067803;28;20048;-60
2021/12/23 13:10:22;;;;;;;21.00;16.55;;;;;;;;;;5049761;28;20491;-60
2021/12/23 13:13:11;;;;;;;23.40;16.90;;;;;;;;;;5057084;28;20102;-59
2021/12/23 13:16:20;;;;;;;24.27;15.38;;;;;;;;;;5049819;28;20047;-63
2021/12/23 13:18:46;;;;;;;19.92;15.23;;;;;;;;;;5067641;28;20111;-59
2021/12/23 13:21:17;;;;;;;24.00;21.35;;;;;;;;;;5068155;28;20032;-60
2021/12/23 13:23:45;;;;;;;25.63;20.70;;;;;;;;;;5067403;28;20484;-60
2021/12/23 13:26:12;;;;;;;24.17;20.52;;;;;;;;;;5067622;28;20029;-61
2021/12/23 13:28:40;;;;;;;21.15;15.35;;;;;;;;;;5064795;28;20893;-60
2021/12/23 13:31:19;;;;;;;14.95;12.27;;;;;;;;;;5049550;28;20024;-62
2021/12/23 13:33:50;;;;;;;13.60;11.02;;;;;;;;;;5067346;28;20033;-60
2021/12/23 13:36:22;;;;;;;16.27;12.00;;;;;;;;;;5065977;28;20036;-61
2021/12/23 13:38:49;;;;;;;15.48;12.32;;;;;;;;;;5067355;28;20032;-60
2021/12/23 13:41:20;;;;;;;15.82;12.85;;;;;;;;;;5049621;28;20040;-60
2021/12/23 13:43:46;;;;;;;16.95;13.35;;;;;;;;;;5067431;28;20032;-61
2021/12/23 13:46:12;;;;;;;20.13;16.08;;;;;;;;;;5067614;28;20373;-60
2021/12/23 13:48:51;;;;;;;23.00;19.95;;;;;;;;;;5060638;28;20037;-62
2021/12/23 13:51:18;;;;;;;27.20;19.48;;;;;;;;;;5056714;28;20033;-62
2021/12/23 13:53:44;;;;;;;16.23;13.43;;;;;;;;;;5033330;28;20457;-60
2021/12/23 13:56:13;;;;;;;12.15;9.15;;;;;;;;;;5056970;28;20500;-60
2021/12/23 13:58:38;;;;;;;13.70;9.60;;;;;;;;;;5028878;28;20033;-60
2021/12/23 14:01:04;;;;;;;13.38;10.02;;;;;;;;;;5047125;28;20033;-60
2021/12/23 14:03:29;;;;;;;11.98;8.65;;;;;;;;;;5046633;28;20683;-61
2021/12/23 14:05:55;;;;;;;13.60;12.18;;;;;;;;;;5046573;28;20083;-61
2021/12/23 14:08:20;;;;;;;13.15;9.85;;;;;;;;;;5045770;28;20435;-62
2021/12/23 14:10:46;;;;;;;12.88;9.10;;;;;;;;;;5044804;28;20033;-60
2021/12/23 14:13:15;;;;;;;9.57;8.35;;;;;;;;;;5046615;28;20365;-61
2021/12/23 14:15:51;;;;;;;10.57;8.23;;;;;;;;;;5032481;28;20090;-60
2021/12/23 14:23:23;;;;;;;9.98;7.60;;;;;;;;;;5050535;28;20534;-60
2021/12/23 14:25:58;;;;;;;11.40;7.68;;;;;;;;;;5050512;28;20556;-61
2021/12/23 14:28:25;;;;;;;9.93;7.93;;;;;;;;;;5046923;28;20045;-61
2021/12/23 14:31:17;;;;;;;11.07;7.82;;;;;;;;;;5069907;28;20442;-61
2021/12/23 14:33:48;;;;;;;10.95;7.60;;;;;;;;;;5063180;28;20053;-59
2021/12/23 14:36:19;;;;;;;9.40;7.45;;;;;;;;;;5068215;28;20070;-60
2021/12/23 14:38:45;;;;;;;10.32;8.07;;;;;;;;;;5066893;28;20024;-60
2021/12/23 14:41:15;;;;;;;10.38;8.25;;;;;;;;;;5069071;28;20028;-60
2021/12/23 14:43:41;;;;;;;;;;;;;;;;;;5068023;28;20060;-60
2021/12/23 14:46:06;;;;;;;11.35;8.40;;;;;;;;;;5066835;28;20054;-61
2021/12/23 14:48:54;;;;;;;11.25;8.48;;;;;;;;;;5066810;28;20032;-60
2021/12/23 14:51:20;;;;;;;13.15;9.52;;;;;;;;;;5061994;28;20457;-61
2021/12/23 14:53:46;;;;;;;12.07;9.07;;;;;;;;;;5067829;28;20479;-60
2021/12/23 14:56:19;;;;;;;12.18;9.52;;;;;;;;;;5067970;28;20037;-60
2021/12/23 14:59:00;;;;;;;14.27;11.20;;;;;;;;;;5067529;28;20072;-61
2021/12/23 15:01:25;;;;;;;16.70;11.18;;;;;;;;;;5068104;28;20037;-60
2021/12/23 15:04:01;;;;;;;14.45;10.35;;;;;;;;;;5067943;28;20020;-59
2021/12/23 15:06:26;;;;;;;16.80;11.40;;;;;;;;;;5062111;28;20048;-61
2021/12/23 15:08:53;;;;;;;15.10;11.50;;;;;;;;;;5040176;28;20055;-59
2021/12/23 15:11:25;;;;;;;13.85;11.35;;;;;;;;;;5067363;28;20028;-60
2021/12/23 15:13:51;;;;;;;17.38;12.52;;;;;;;;;;5069505;28;20033;-60
2021/12/23 15:16:18;;;;;;;16.30;12.20;;;;;;;;;;5069663;28;20496;-61
2021/12/23 15:21:40;;;;;;;16.38;14.13;;;;;;;;;;5068584;28;20072;-60
2021/12/23 15:24:06;;;;;;;;;;;;;;;;;;5069933;28;20117;-61
2021/12/23 15:26:33;;;;;;;18.83;13.20;;;;;;;;;;5069664;28;19999;-59
2021/12/23 15:29:13;;;;;;;16.67;12.98;;;;;;;;;;5067892;28;20500;-59
2021/12/23 15:31:39;;;;;;;19.63;14.05;;;;;;;;;;5069410;28;20037;-61
2021/12/23 15:34:08;;;;;;;20.33;14.07;;;;;;;;;;5069424;28;20036;-60
2021/12/23 15:36:34;;;;;;;18.53;15.60;;;;;;;;;;5069199;28;20051;-61
2021/12/23 15:39:00;;;;;;;22.95;18.05;;;;;;;;;;5068216;28;20278;-60
2021/12/23 15:41:25;;;;;;;18.08;14.02;;;;;;;;;;5068775;28;20446;-61
2021/12/23 15:43:51;;;;;;;21.38;14.60;;;;;;;;;;5069638;28;20032;-60